sensor_id;sensor_type;location;lat;lon;timestamp;pressure;altitude;pressure_sealevel;temperature;humidity
70781;BME280;59514;48.810;2.134;2022-11-18T00:00:42;98564.19;;;9.56;93.74
70781;BME280;59514;48.810;2.134;2022-11-18T00:03:07;98583.44;;;9.53;93.33
70781;BME280;59514;48.810;2.134;2022-11-18T00:05:33;98572.50;;;9.60;93.03
70781;BME280;59514;48.810;2.134;2022-11-18T00:07:58;98574.03;;;9.45;92.94
70781;BME280;59514;48.810;2.134;2022-11-18T00:10:23;98586.66;;;9.50;93.47
70781;BME280;59514;48.810;2.134;2022-11-18T00:12:49;98583.94;;;9.45;93.40
70781;BME280;59514;48.810;2.134;2022-11-18T00:15:33;98584.75;;;9.45;93.46
70781;BME280;59514;48.810;2.134;2022-11-18T00:17:58;98596.28;;;9.46;92.99
70781;BME280;59514;48.810;2.134;2022-11-18T00:20:23;98598.16;;;9.45;93.48
70781;BME280;59514;48.810;2.134;2022-11-18T00:22:49;98605.13;;;9.51;92.43
70781;BME280;59514;48.810;2.134;2022-11-18T00:25:14;98605.66;;;9.48;93.54
70781;BME280;59514;48.810;2.134;2022-11-18T00:27:39;98615.00;;;9.41;92.74
70781;BME280;59514;48.810;2.134;2022-11-18T00:30:05;98609.69;;;9.46;93.58
70781;BME280;59514;48.810;2.134;2022-11-18T00:32:30;98613.41;;;9.45;92.98
70781;BME280;59514;48.810;2.134;2022-11-18T00:34:56;98617.44;;;9.42;93.28
70781;BME280;59514;48.810;2.134;2022-11-18T00:37:21;98628.09;;;9.32;93.52
70781;BME280;59514;48.810;2.134;2022-11-18T00:39:46;98627.00;;;9.33;93.33
70781;BME280;59514;48.810;2.134;2022-11-18T00:42:12;98623.28;;;9.34;93.84
70781;BME280;59514;48.810;2.134;2022-11-18T00:44:56;98631.31;;;9.39;93.14
70781;BME280;59514;48.810;2.134;2022-11-18T00:47:21;98639.91;;;9.46;93.67
70781;BME280;59514;48.810;2.134;2022-11-18T00:49:46;98644.72;;;9.39;92.93
70781;BME280;59514;48.810;2.134;2022-11-18T00:52:12;98654.88;;;9.37;93.60
70781;BME280;59514;48.810;2.134;2022-11-18T00:54:37;98662.16;;;9.47;92.64
70781;BME280;59514;48.810;2.134;2022-11-18T00:57:02;98655.66;;;9.33;93.13
70781;BME280;59514;48.810;2.134;2022-11-18T00:59:29;98661.81;;;9.33;93.90
70781;BME280;59514;48.810;2.134;2022-11-18T01:01:54;98663.44;;;9.34;93.10
70781;BME280;59514;48.810;2.134;2022-11-18T01:04:20;98668.81;;;9.34;93.84
70781;BME280;59514;48.810;2.134;2022-11-18T01:06:45;98672.06;;;9.46;92.66
70781;BME280;59514;48.810;2.134;2022-11-18T01:09:11;98667.53;;;9.47;92.81
70781;BME280;59514;48.810;2.134;2022-11-18T01:11:36;98665.94;;;9.51;92.88
70781;BME280;59514;48.810;2.134;2022-11-18T01:14:23;98667.84;;;9.55;92.09
70781;BME280;59514;48.810;2.134;2022-11-18T01:16:49;98663.53;;;9.54;92.13
70781;BME280;59514;48.810;2.134;2022-11-18T01:19:17;98669.94;;;9.48;92.74
70781;BME280;59514;48.810;2.134;2022-11-18T01:21:43;98672.06;;;9.46;92.54
70781;BME280;59514;48.810;2.134;2022-11-18T01:24:08;98677.13;;;9.43;92.86
70781;BME280;59514;48.810;2.134;2022-11-18T01:26:33;98676.09;;;9.44;92.16
70781;BME280;59514;48.810;2.134;2022-11-18T01:28:59;98673.69;;;9.47;93.03
70781;BME280;59514;48.810;2.134;2022-11-18T01:31:24;98682.28;;;9.49;91.84
70781;BME280;59514;48.810;2.134;2022-11-18T01:33:50;98690.53;;;9.43;93.04
70781;BME280;59514;48.810;2.134;2022-11-18T01:38:41;98690.22;;;9.34;93.23
70781;BME280;59514;48.810;2.134;2022-11-18T01:41:06;98692.91;;;9.34;93.04
70781;BME280;59514;48.810;2.134;2022-11-18T01:43:47;98695.63;;;9.44;92.51
70781;BME280;59514;48.810;2.134;2022-11-18T01:46:12;98697.25;;;9.45;92.63
70781;BME280;59514;48.810;2.134;2022-11-18T01:48:38;98690.25;;;9.39;92.84
70781;BME280;59514;48.810;2.134;2022-11-18T01:51:07;98688.66;;;9.43;92.92
70781;BME280;59514;48.810;2.134;2022-11-18T01:53:39;98693.47;;;9.36;93.55
70781;BME280;59514;48.810;2.134;2022-11-18T01:56:10;98696.69;;;9.38;92.81
70781;BME280;59514;48.810;2.134;2022-11-18T01:58:39;98699.84;;;9.30;92.90
70781;BME280;59514;48.810;2.134;2022-11-18T02:01:06;98696.34;;;9.30;92.95
70781;BME280;59514;48.810;2.134;2022-11-18T02:03:32;98701.72;;;9.35;92.87
70781;BME280;59514;48.810;2.134;2022-11-18T02:05:59;98704.09;;;9.26;93.27
70781;BME280;59514;48.810;2.134;2022-11-18T02:08:27;98720.44;;;9.30;93.46
70781;BME280;59514;48.810;2.134;2022-11-18T02:10:53;98716.13;;;9.24;94.17
70781;BME280;59514;48.810;2.134;2022-11-18T02:13:18;98719.34;;;9.26;94.55
70781;BME280;59514;48.810;2.134;2022-11-18T02:18:21;98738.31;;;9.19;94.75
70781;BME280;59514;48.810;2.134;2022-11-18T02:21:18;98733.00;;;9.24;94.46
70781;BME280;59514;48.810;2.134;2022-11-18T02:24:00;98732.91;;;9.14;94.80
70781;BME280;59514;48.810;2.134;2022-11-18T02:29:25;98736.84;;;9.07;94.86
70781;BME280;59514;48.810;2.134;2022-11-18T02:31:57;98742.25;;;9.12;94.86
70781;BME280;59514;48.810;2.134;2022-11-18T02:37:05;98739.03;;;9.10;95.14
70781;BME280;59514;48.810;2.134;2022-11-18T02:39:38;98742.00;;;9.13;94.85
70781;BME280;59514;48.810;2.134;2022-11-18T02:42:09;98740.69;;;9.16;95.27
70781;BME280;59514;48.810;2.134;2022-11-18T02:44:38;98747.56;;;9.07;94.89
70781;BME280;59514;48.810;2.134;2022-11-18T02:47:07;98749.38;;;9.01;95.14
70781;BME280;59514;48.810;2.134;2022-11-18T02:49:38;98753.69;;;9.02;95.31
70781;BME280;59514;48.810;2.134;2022-11-18T02:52:05;98757.94;;;8.98;95.39
70781;BME280;59514;48.810;2.134;2022-11-18T02:54:33;98763.28;;;8.98;95.50
70781;BME280;59514;48.810;2.134;2022-11-18T02:57:01;98772.94;;;8.99;95.43
70781;BME280;59514;48.810;2.134;2022-11-18T02:59:28;98766.44;;;8.90;95.56
70781;BME280;59514;48.810;2.134;2022-11-18T03:01:54;98765.13;;;8.93;95.53
70781;BME280;59514;48.810;2.134;2022-11-18T03:04:20;98764.59;;;8.96;94.95
70781;BME280;59514;48.810;2.134;2022-11-18T03:07:01;98765.88;;;8.88;95.18
70781;BME280;59514;48.810;2.134;2022-11-18T03:09:30;98765.34;;;8.91;95.62
70781;BME280;59514;48.810;2.134;2022-11-18T03:12:24;98764.88;;;8.94;95.28
70781;BME280;59514;48.810;2.134;2022-11-18T03:23:06;98768.56;;;8.88;95.19
70781;BME280;59514;48.810;2.134;2022-11-18T03:25:45;98772.81;;;8.89;95.51
70781;BME280;59514;48.810;2.134;2022-11-18T03:33:35;98778.06;;;8.79;95.54
70781;BME280;59514;48.810;2.134;2022-11-18T03:36:04;98780.31;;;8.87;95.67
70781;BME280;59514;48.810;2.134;2022-11-18T03:38:37;98774.94;;;8.87;95.54
70781;BME280;59514;48.810;2.134;2022-11-18T03:41:07;98783.53;;;8.89;95.56
70781;BME280;59514;48.810;2.134;2022-11-18T03:43:39;98788.94;;;8.94;95.87
70781;BME280;59514;48.810;2.134;2022-11-18T03:46:16;98796.91;;;8.89;95.62
70781;BME280;59514;48.810;2.134;2022-11-18T03:48:48;98797.91;;;8.83;96.51
70781;BME280;59514;48.810;2.134;2022-11-18T03:51:18;98806.75;;;8.84;96.15
70781;BME280;59514;48.810;2.134;2022-11-18T03:53:52;98808.06;;;8.81;95.67
70781;BME280;59514;48.810;2.134;2022-11-18T03:56:22;98807.59;;;8.84;96.34
70781;BME280;59514;48.810;2.134;2022-11-18T04:01:42;98815.88;;;8.83;95.50
70781;BME280;59514;48.810;2.134;2022-11-18T04:04:11;98824.19;;;8.86;95.88
70781;BME280;59514;48.810;2.134;2022-11-18T04:06:41;98815.91;;;8.88;95.65
70781;BME280;59514;48.810;2.134;2022-11-18T04:09:18;98829.84;;;8.90;95.72
70781;BME280;59514;48.810;2.134;2022-11-18T04:11:50;98834.16;;;8.91;95.38
70781;BME280;59514;48.810;2.134;2022-11-18T04:14:35;98829.84;;;8.90;95.44
70781;BME280;59514;48.810;2.134;2022-11-18T04:17:22;98837.56;;;8.86;95.49
70781;BME280;59514;48.810;2.134;2022-11-18T04:19:48;98849.69;;;8.94;95.06
70781;BME280;59514;48.810;2.134;2022-11-18T04:22:14;98848.66;;;8.95;94.94
70781;BME280;59514;48.810;2.134;2022-11-18T04:24:40;98859.28;;;8.90;95.52
70781;BME280;59514;48.810;2.134;2022-11-18T04:27:06;98869.38;;;8.83;95.29
70781;BME280;59514;48.810;2.134;2022-11-18T04:29:32;98878.47;;;8.82;95.35
70781;BME280;59514;48.810;2.134;2022-11-18T04:31:59;98872.84;;;8.83;95.78
70781;BME280;59514;48.810;2.134;2022-11-18T04:34:24;98879.56;;;8.86;95.50
70781;BME280;59514;48.810;2.134;2022-11-18T04:36:49;98879.28;;;8.82;95.63
70781;BME280;59514;48.810;2.134;2022-11-18T04:39:16;98879.28;;;8.82;95.29
70781;BME280;59514;48.810;2.134;2022-11-18T04:41:42;98887.91;;;8.89;95.64
70781;BME280;59514;48.810;2.134;2022-11-18T04:44:24;98885.94;;;8.80;95.66
70781;BME280;59514;48.810;2.134;2022-11-18T04:46:51;98887.22;;;8.77;96.15
70781;BME280;59514;48.810;2.134;2022-11-18T04:49:17;98886.09;;;8.73;95.51
70781;BME280;59514;48.810;2.134;2022-11-18T04:51:43;98897.56;;;8.68;95.84
70781;BME280;59514;48.810;2.134;2022-11-18T04:54:09;98902.97;;;8.74;95.76
70781;BME280;59514;48.810;2.134;2022-11-18T04:56:36;98898.75;;;8.78;95.41
70781;BME280;59514;48.810;2.134;2022-11-18T04:59:02;98909.31;;;8.67;95.91
70781;BME280;59514;48.810;2.134;2022-11-18T05:01:28;98896.50;;;8.69;96.11
70781;BME280;59514;48.810;2.134;2022-11-18T05:03:54;98902.97;;;8.74;95.68
70781;BME280;59514;48.810;2.134;2022-11-18T05:06:19;98905.41;;;8.75;95.12
70781;BME280;59514;48.810;2.134;2022-11-18T05:08:45;98903.16;;;8.67;95.49
70781;BME280;59514;48.810;2.134;2022-11-18T05:11:10;98906.34;;;8.64;95.24
70781;BME280;59514;48.810;2.134;2022-11-18T05:13:54;98912.25;;;8.66;95.45
70781;BME280;59514;48.810;2.134;2022-11-18T05:16:19;98911.13;;;8.62;95.16
70781;BME280;59514;48.810;2.134;2022-11-18T05:18:45;98914.78;;;8.56;95.66
70781;BME280;59514;48.810;2.134;2022-11-18T05:21:10;98907.38;;;8.63;95.40
70781;BME280;59514;48.810;2.134;2022-11-18T05:23:36;98915.50;;;8.68;94.81
70781;BME280;59514;48.810;2.134;2022-11-18T05:26:03;98911.13;;;8.62;94.95
70781;BME280;59514;48.810;2.134;2022-11-18T05:28:28;98906.47;;;8.52;95.23
70781;BME280;59514;48.810;2.134;2022-11-18T05:30:54;98920.56;;;8.48;95.32
70781;BME280;59514;48.810;2.134;2022-11-18T05:33:19;98917.16;;;8.52;95.14
70781;BME280;59514;48.810;2.134;2022-11-18T05:35:44;98910.16;;;8.51;94.96
70781;BME280;59514;48.810;2.134;2022-11-18T05:38:10;98914.41;;;8.47;95.33
70781;BME280;59514;48.810;2.134;2022-11-18T05:40:35;98932.34;;;8.47;94.92
70781;BME280;59514;48.810;2.134;2022-11-18T05:43:00;98924.31;;;8.47;94.74
70781;BME280;59514;48.810;2.134;2022-11-18T05:45:35;98924.94;;;8.37;95.82
70781;BME280;59514;48.810;2.134;2022-11-18T05:48:00;98922.53;;;8.36;95.45
70781;BME280;59514;48.810;2.134;2022-11-18T05:50:27;98931.22;;;8.26;95.26
70781;BME280;59514;48.810;2.134;2022-11-18T05:52:52;98928.94;;;8.35;95.58
70781;BME280;59514;48.810;2.134;2022-11-18T05:55:18;98933.78;;;8.38;95.10
70781;BME280;59514;48.810;2.134;2022-11-18T05:57:44;98933.72;;;8.33;95.33
70781;BME280;59514;48.810;2.134;2022-11-18T06:00:10;98936.16;;;8.34;94.94
70781;BME280;59514;48.810;2.134;2022-11-18T06:02:36;98933.63;;;8.28;95.52
70781;BME280;59514;48.810;2.134;2022-11-18T06:05:03;98945.22;;;8.33;95.31
70781;BME280;59514;48.810;2.134;2022-11-18T06:07:34;98948.78;;;8.39;94.88
70781;BME280;59514;48.810;2.134;2022-11-18T06:10:03;98949.81;;;8.21;95.38
70781;BME280;59514;48.810;2.134;2022-11-18T06:12:30;98956.53;;;8.24;95.67
70781;BME280;59514;48.810;2.134;2022-11-18T06:15:09;98961.50;;;8.32;95.57
70781;BME280;59514;48.810;2.134;2022-11-18T06:17:42;98970.66;;;8.36;94.90
70781;BME280;59514;48.810;2.134;2022-11-18T06:20:10;98977.66;;;8.37;95.01
70781;BME280;59514;48.810;2.134;2022-11-18T06:22:35;98971.56;;;8.25;95.10
70781;BME280;59514;48.810;2.134;2022-11-18T06:25:01;98975.25;;;8.24;95.20
70781;BME280;59514;48.810;2.134;2022-11-18T06:27:27;98982.59;;;8.28;95.00
70781;BME280;59514;48.810;2.134;2022-11-18T06:29:53;98984.56;;;8.21;95.02
70781;BME280;59514;48.810;2.134;2022-11-18T06:32:18;98990.28;;;8.25;95.23
70781;BME280;59514;48.810;2.134;2022-11-18T06:34:43;98999.66;;;8.27;95.20
70781;BME280;59514;48.810;2.134;2022-11-18T06:37:14;99003.84;;;8.23;95.31
70781;BME280;59514;48.810;2.134;2022-11-18T06:39:39;99001.09;;;8.18;95.19
70781;BME280;59514;48.810;2.134;2022-11-18T06:42:05;99013.91;;;8.16;95.39
70781;BME280;59514;48.810;2.134;2022-11-18T06:44:30;99020.38;;;8.20;95.32
70781;BME280;59514;48.810;2.134;2022-11-18T06:46:55;99026.31;;;8.22;94.77
70781;BME280;59514;48.810;2.134;2022-11-18T06:49:24;99033.13;;;8.30;94.48
70781;BME280;59514;48.810;2.134;2022-11-18T06:51:50;99036.75;;;8.24;94.89
70781;BME280;59514;48.810;2.134;2022-11-18T06:54:16;99032.94;;;8.20;94.49
70781;BME280;59514;48.810;2.134;2022-11-18T06:56:41;99042.59;;;8.21;95.07
70781;BME280;59514;48.810;2.134;2022-11-18T06:59:07;99042.34;;;8.22;94.94
70781;BME280;59514;48.810;2.134;2022-11-18T07:01:37;99046.44;;;8.25;94.82
70781;BME280;59514;48.810;2.134;2022-11-18T07:04:03;99052.34;;;8.27;94.51
70781;BME280;59514;48.810;2.134;2022-11-18T07:06:31;99058.28;;;8.17;95.30
70781;BME280;59514;48.810;2.134;2022-11-18T07:08:59;99059.03;;;8.13;95.53
70781;BME280;59514;48.810;2.134;2022-11-18T07:11:25;99063.47;;;8.24;95.25
70781;BME280;59514;48.810;2.134;2022-11-18T07:13:51;99062.47;;;8.25;94.75
70781;BME280;59514;48.810;2.134;2022-11-18T07:16:22;99072.56;;;8.23;95.01
70781;BME280;59514;48.810;2.134;2022-11-18T07:18:49;99079.34;;;8.14;95.37
70781;BME280;59514;48.810;2.134;2022-11-18T07:21:25;99076.09;;;8.12;95.70
70781;BME280;59514;48.810;2.134;2022-11-18T07:23:52;99072.22;;;8.19;95.74
70781;BME280;59514;48.810;2.134;2022-11-18T07:26:18;99086.16;;;8.21;95.36
70781;BME280;59514;48.810;2.134;2022-11-18T07:28:43;99085.00;;;8.17;94.78
70781;BME280;59514;48.810;2.134;2022-11-18T07:31:11;99087.47;;;8.19;95.14
70781;BME280;59514;48.810;2.134;2022-11-18T07:33:38;99099.78;;;8.20;95.17
70781;BME280;59514;48.810;2.134;2022-11-18T07:36:12;99100.25;;;8.17;95.81
70781;BME280;59514;48.810;2.134;2022-11-18T07:38:38;99104.66;;;8.23;95.20
70781;BME280;59514;48.810;2.134;2022-11-18T07:41:12;99114.28;;;8.24;94.98
70781;BME280;59514;48.810;2.134;2022-11-18T07:43:39;99103.59;;;8.24;94.60
70781;BME280;59514;48.810;2.134;2022-11-18T07:46:24;99110.53;;;8.36;94.76
70781;BME280;59514;48.810;2.134;2022-11-18T07:48:52;99115.25;;;8.46;93.89
70781;BME280;59514;48.810;2.134;2022-11-18T07:51:21;99121.16;;;8.48;94.04
70781;BME280;59514;48.810;2.134;2022-11-18T07:53:46;99117.09;;;8.29;94.80
70781;BME280;59514;48.810;2.134;2022-11-18T07:56:12;99119.28;;;8.32;95.25
70781;BME280;59514;48.810;2.134;2022-11-18T07:58:39;99129.72;;;8.33;95.30
70781;BME280;59514;48.810;2.134;2022-11-18T08:01:18;99131.22;;;8.41;94.74
70781;BME280;59514;48.810;2.134;2022-11-18T08:03:45;99133.22;;;8.34;95.12
70781;BME280;59514;48.810;2.134;2022-11-18T08:06:12;99130.84;;;8.37;95.08
70781;BME280;59514;48.810;2.134;2022-11-18T08:08:38;99135.81;;;8.45;94.87
70781;BME280;59514;48.810;2.134;2022-11-18T08:11:06;99151.41;;;8.48;94.76
70781;BME280;59514;48.810;2.134;2022-11-18T08:13:32;99152.69;;;8.46;95.24
70781;BME280;59514;48.810;2.134;2022-11-18T08:15:58;99145.81;;;8.50;94.91
70781;BME280;59514;48.810;2.134;2022-11-18T08:18:24;99149.16;;;8.57;94.51
70781;BME280;59514;48.810;2.134;2022-11-18T08:20:49;99158.84;;;8.63;94.45
70781;BME280;59514;48.810;2.134;2022-11-18T08:23:15;99149.69;;;8.59;94.12
70781;BME280;59514;48.810;2.134;2022-11-18T08:25:42;99147.19;;;8.52;94.67
70781;BME280;59514;48.810;2.134;2022-11-18T08:28:09;99160.50;;;8.64;94.19
70781;BME280;59514;48.810;2.134;2022-11-18T08:30:35;99148.97;;;8.63;94.69
70781;BME280;59514;48.810;2.134;2022-11-18T08:33:00;99141.66;;;8.59;94.02
70781;BME280;59514;48.810;2.134;2022-11-18T08:35:27;99138.44;;;8.57;94.45
70781;BME280;59514;48.810;2.134;2022-11-18T08:37:52;99150.75;;;8.58;94.60
70781;BME280;59514;48.810;2.134;2022-11-18T08:40:18;99146.13;;;8.53;94.80
70781;BME280;59514;48.810;2.134;2022-11-18T08:42:43;99158.34;;;8.49;94.97
70781;BME280;59514;48.810;2.134;2022-11-18T08:45:09;99152.88;;;8.56;95.03
70781;BME280;59514;48.810;2.134;2022-11-18T08:47:35;99155.53;;;8.56;95.09
70781;BME280;59514;48.810;2.134;2022-11-18T08:50:05;99161.78;;;8.61;94.56
70781;BME280;59514;48.810;2.134;2022-11-18T08:52:31;99157.09;;;8.68;94.84
70781;BME280;59514;48.810;2.134;2022-11-18T08:54:56;99174.63;;;8.76;94.88
70781;BME280;59514;48.810;2.134;2022-11-18T08:57:22;99168.75;;;8.79;94.23
70781;BME280;59514;48.810;2.134;2022-11-18T08:59:47;99181.84;;;8.92;93.70
70781;BME280;59514;48.810;2.134;2022-11-18T09:02:17;99174.53;;;9.04;92.67
70781;BME280;59514;48.810;2.134;2022-11-18T09:04:45;99165.19;;;9.07;93.10
70781;BME280;59514;48.810;2.134;2022-11-18T09:07:11;99169.25;;;9.09;92.81
70781;BME280;59514;48.810;2.134;2022-11-18T09:09:36;99172.34;;;9.01;92.80
70781;BME280;59514;48.810;2.134;2022-11-18T09:12:01;99173.78;;;9.09;93.24
70781;BME280;59514;48.810;2.134;2022-11-18T09:14:27;99174.13;;;9.12;92.60
70781;BME280;59514;48.810;2.134;2022-11-18T09:16:52;99182.13;;;9.29;91.82
70781;BME280;59514;48.810;2.134;2022-11-18T09:19:17;99185.56;;;9.24;92.21
70781;BME280;59514;48.810;2.134;2022-11-18T09:21:43;99183.50;;;9.31;92.06
70781;BME280;59514;48.810;2.134;2022-11-18T09:24:08;99181.09;;;9.30;91.59
70781;BME280;59514;48.810;2.134;2022-11-18T09:26:36;99186.75;;;9.33;92.09
70781;BME280;59514;48.810;2.134;2022-11-18T09:29:01;99194.38;;;9.41;91.44
70781;BME280;59514;48.810;2.134;2022-11-18T09:31:27;99196.63;;;9.49;91.53
70781;BME280;59514;48.810;2.134;2022-11-18T09:33:52;99201.28;;;9.54;91.25
70781;BME280;59514;48.810;2.134;2022-11-18T09:36:19;99200.50;;;9.58;91.12
70781;BME280;59514;48.810;2.134;2022-11-18T09:38:45;99199.47;;;9.60;89.98
70781;BME280;59514;48.810;2.134;2022-11-18T09:41:38;99208.31;;;9.60;90.10
70781;BME280;59514;48.810;2.134;2022-11-18T09:44:26;99201.31;;;9.59;90.09
70781;BME280;59514;48.810;2.134;2022-11-18T09:49:43;99196.13;;;9.52;90.38
70781;BME280;59514;48.810;2.134;2022-11-18T09:52:16;99208.06;;;9.62;90.66
70781;BME280;59514;48.810;2.134;2022-11-18T09:54:43;99202.75;;;9.67;89.74
70781;BME280;59514;48.810;2.134;2022-11-18T09:57:38;99204.53;;;9.78;90.09
70781;BME280;59514;48.810;2.134;2022-11-18T10:00:13;99204.53;;;9.78;89.83
70781;BME280;59514;48.810;2.134;2022-11-18T10:02:58;99210.50;;;9.85;89.30
70781;BME280;59514;48.810;2.134;2022-11-18T10:11:02;99217.59;;;10.12;88.00
70781;BME280;59514;48.810;2.134;2022-11-18T10:17:05;99228.22;;;10.24;87.36
70781;BME280;59514;48.810;2.134;2022-11-18T10:19:43;99226.09;;;10.26;87.44
70781;BME280;59514;48.810;2.134;2022-11-18T10:22:47;99227.25;;;10.35;87.36
70781;BME280;59514;48.810;2.134;2022-11-18T10:25:15;99227.56;;;10.38;87.42
70781;BME280;59514;48.810;2.134;2022-11-18T10:27:43;99234.31;;;10.41;87.02
70781;BME280;59514;48.810;2.134;2022-11-18T10:30:22;99235.34;;;10.40;86.07
70781;BME280;59514;48.810;2.134;2022-11-18T10:32:58;99228.69;;;10.43;86.33
70781;BME280;59514;48.810;2.134;2022-11-18T10:38:20;99225.84;;;10.54;84.77
70781;BME280;59514;48.810;2.134;2022-11-18T10:46:35;99235.38;;;10.67;85.25
70781;BME280;59514;48.810;2.134;2022-11-18T10:54:19;99239.19;;;10.71;84.19
70781;BME280;59514;48.810;2.134;2022-11-18T10:56:52;99230.38;;;10.75;83.86
70781;BME280;59514;48.810;2.134;2022-11-18T11:04:43;99236.91;;;10.84;84.22
70781;BME280;59514;48.810;2.134;2022-11-18T11:12:31;99231.53;;;10.84;83.15
70781;BME280;59514;48.810;2.134;2022-11-18T11:15:13;99237.63;;;11.01;83.44
70781;BME280;59514;48.810;2.134;2022-11-18T11:17:58;99251.88;;;11.07;82.43
70781;BME280;59514;48.810;2.134;2022-11-18T11:20:43;99245.91;;;11.00;82.10
70781;BME280;59514;48.810;2.134;2022-11-18T11:23:09;99249.97;;;11.02;81.86
70781;BME280;59514;48.810;2.134;2022-11-18T11:26:07;99239.28;;;11.07;81.97
70781;BME280;59514;48.810;2.134;2022-11-18T11:28:58;99246.88;;;11.15;81.20
70781;BME280;59514;48.810;2.134;2022-11-18T11:34:27;99243.19;;;11.26;80.55
70781;BME280;59514;48.810;2.134;2022-11-18T11:44:40;99239.69;;;11.26;80.16
70781;BME280;59514;48.810;2.134;2022-11-18T11:50:07;99228.13;;;11.25;80.52
70781;BME280;59514;48.810;2.134;2022-11-18T11:56:03;99245.25;;;11.19;80.93
70781;BME280;59514;48.810;2.134;2022-11-18T12:07:02;99238.44;;;11.39;79.48
70781;BME280;59514;48.810;2.134;2022-11-18T12:15:00;99233.56;;;11.36;79.61
70781;BME280;59514;48.810;2.134;2022-11-18T12:17:39;99256.34;;;11.23;79.10
70781;BME280;59514;48.810;2.134;2022-11-18T12:20:49;99245.59;;;11.23;79.47
70781;BME280;59514;48.810;2.134;2022-11-18T12:23:17;99236.22;;;11.31;80.30
70781;BME280;59514;48.810;2.134;2022-11-18T12:36:08;99245.41;;;11.35;79.37
70781;BME280;59514;48.810;2.134;2022-11-18T12:38:34;99243.34;;;11.47;78.54
70781;BME280;59514;48.810;2.134;2022-11-18T12:40:59;99240.59;;;11.42;78.77
70781;BME280;59514;48.810;2.134;2022-11-18T12:44:05;99236.66;;;11.49;78.79
70781;BME280;59514;48.810;2.134;2022-11-18T12:50:05;99255.81;;;11.63;77.96
70781;BME280;59514;48.810;2.134;2022-11-18T12:52:06;99246.84;;;11.84;76.89
70781;BME280;59514;48.810;2.134;2022-11-18T12:54:49;99249.13;;;12.12;75.55
70781;BME280;59514;48.810;2.134;2022-11-18T12:57:20;99248.09;;;12.23;74.40
70781;BME280;59514;48.810;2.134;2022-11-18T12:59:47;99235.00;;;12.42;73.77
70781;BME280;59514;48.810;2.134;2022-11-18T13:02:25;99243.94;;;12.62;72.25
70781;BME280;59514;48.810;2.134;2022-11-18T13:05:10;99248.78;;;12.65;71.14
70781;BME280;59514;48.810;2.134;2022-11-18T13:07:57;99253.47;;;13.05;70.19
70781;BME280;59514;48.810;2.134;2022-11-18T13:10:48;99252.63;;;12.89;70.42
70781;BME280;59514;48.810;2.134;2022-11-18T13:13:28;99255.31;;;12.94;70.72
70781;BME280;59514;48.810;2.134;2022-11-18T13:15:58;99252.41;;;13.36;67.49
70781;BME280;59514;48.810;2.134;2022-11-18T13:18:50;99258.84;;;13.05;68.71
70781;BME280;59514;48.810;2.134;2022-11-18T13:21:24;99243.44;;;12.75;68.98
70781;BME280;59514;48.810;2.134;2022-11-18T13:24:13;99246.69;;;12.87;69.11
70781;BME280;59514;48.810;2.134;2022-11-18T13:26:40;99256.91;;;12.70;69.77
70781;BME280;59514;48.810;2.134;2022-11-18T13:31:47;99243.44;;;12.80;69.01
70781;BME280;59514;48.810;2.134;2022-11-18T13:34:19;99251.22;;;12.77;69.67
70781;BME280;59514;48.810;2.134;2022-11-18T13:36:46;99245.59;;;12.68;69.75
70781;BME280;59514;48.810;2.134;2022-11-18T13:39:31;99241.25;;;12.67;69.94
70781;BME280;59514;48.810;2.134;2022-11-18T13:42:01;99238.59;;;12.72;70.25
70781;BME280;59514;48.810;2.134;2022-11-18T13:44:32;99247.22;;;12.74;69.91
70781;BME280;59514;48.810;2.134;2022-11-18T13:49:51;99234.28;;;12.81;69.34
70781;BME280;59514;48.810;2.134;2022-11-18T13:52:23;99237.28;;;13.00;69.55
70781;BME280;59514;48.810;2.134;2022-11-18T13:54:52;99229.69;;;12.77;69.80
70781;BME280;59514;48.810;2.134;2022-11-18T13:57:21;99240.75;;;13.00;69.29
70781;BME280;59514;48.810;2.134;2022-11-18T13:59:48;99241.09;;;13.19;67.35
70781;BME280;59514;48.810;2.134;2022-11-18T14:02:15;99249.44;;;13.13;67.75
70781;BME280;59514;48.810;2.134;2022-11-18T14:04:53;99239.19;;;13.15;67.31
70781;BME280;59514;48.810;2.134;2022-11-18T14:07:31;99248.63;;;13.17;66.68
70781;BME280;59514;48.810;2.134;2022-11-18T14:10:13;99254.81;;;13.13;67.50
70781;BME280;59514;48.810;2.134;2022-11-18T14:12:39;99255.09;;;13.06;66.85
70781;BME280;59514;48.810;2.134;2022-11-18T14:17:57;99259.63;;;12.95;67.01
70781;BME280;59514;48.810;2.134;2022-11-18T14:20:25;99262.28;;;12.70;68.84
70781;BME280;59514;48.810;2.134;2022-11-18T14:22:53;99264.16;;;12.75;68.57
70781;BME280;59514;48.810;2.134;2022-11-18T14:25:49;99255.28;;;12.79;67.80
70781;BME280;59514;48.810;2.134;2022-11-18T14:31:04;99264.06;;;12.45;69.25
70781;BME280;59514;48.810;2.134;2022-11-18T14:33:34;99261.88;;;12.27;69.78
70781;BME280;59514;48.810;2.134;2022-11-18T14:36:07;99267.16;;;12.11;70.61
70781;BME280;59514;48.810;2.134;2022-11-18T14:38:48;99270.84;;;11.95;71.74
70781;BME280;59514;48.810;2.134;2022-11-18T14:41:18;99274.31;;;11.91;71.75
70781;BME280;59514;48.810;2.134;2022-11-18T14:44:04;99276.69;;;11.82;72.72
70781;BME280;59514;48.810;2.134;2022-11-18T14:46:30;99280.69;;;11.80;72.80
70781;BME280;59514;48.810;2.134;2022-11-18T14:48:57;99282.63;;;11.84;73.04
70781;BME280;59514;48.810;2.134;2022-11-18T14:51:22;99282.28;;;11.76;73.46
70781;BME280;59514;48.810;2.134;2022-11-18T14:53:48;99273.72;;;11.84;73.79
70781;BME280;59514;48.810;2.134;2022-11-18T14:56:19;99273.22;;;11.87;73.20
70781;BME280;59514;48.810;2.134;2022-11-18T14:58:46;99277.19;;;11.79;73.70
70781;BME280;59514;48.810;2.134;2022-11-18T15:01:12;99276.34;;;11.74;74.33
70781;BME280;59514;48.810;2.134;2022-11-18T15:03:38;99281.72;;;11.69;74.50
70781;BME280;59514;48.810;2.134;2022-11-18T15:06:09;99285.34;;;11.58;75.17
70781;BME280;59514;48.810;2.134;2022-11-18T15:08:36;99283.75;;;11.57;75.96
70781;BME280;59514;48.810;2.134;2022-11-18T15:11:01;99288.50;;;11.50;76.45
70781;BME280;59514;48.810;2.134;2022-11-18T15:13:26;99290.16;;;11.51;76.10
70781;BME280;59514;48.810;2.134;2022-11-18T15:15:52;99300.91;;;11.51;76.15
70781;BME280;59514;48.810;2.134;2022-11-18T15:18:17;99305.66;;;11.44;77.09
70781;BME280;59514;48.810;2.134;2022-11-18T15:20:42;99301.91;;;11.45;76.80